createdAt,value
2023-05-19T00:02:12.551Z,68.03
2023-05-19T00:05:18.529Z,68.25
2023-05-19T00:08:21.705Z,68.44
2023-05-19T00:11:25.583Z,68.83
2023-05-19T00:14:30.440Z,68.60
2023-05-19T00:17:35.129Z,68.99
2023-05-19T00:20:38.068Z,69.40
2023-05-19T00:23:40.995Z,69.26
2023-05-19T00:26:43.809Z,69.47
2023-05-19T00:29:47.923Z,69.72
2023-05-19T00:32:50.974Z,69.90
2023-05-19T00:35:54.234Z,69.90
2023-05-19T00:38:57.277Z,70.28
2023-05-19T00:42:00.757Z,70.40
2023-05-19T00:45:06.000Z,70.52
2023-05-19T00:48:08.881Z,70.98
2023-05-19T00:51:14.681Z,71.07
2023-05-19T00:54:17.510Z,71.45
2023-05-19T00:57:20.900Z,71.82
2023-05-19T01:00:25.563Z,71.75
2023-05-19T01:03:31.392Z,71.81
2023-05-19T01:06:34.353Z,71.96
2023-05-19T01:09:37.423Z,72.17
2023-05-19T01:12:41.718Z,72.21
2023-05-19T01:16:01.201Z,72.40
2023-05-19T01:19:21.078Z,72.15
2023-05-19T01:22:54.977Z,72.23
2023-05-19T01:26:19.389Z,72.20
2023-05-19T01:29:34.202Z,72.34
2023-05-19T01:32:42.690Z,72.71
2023-05-19T01:35:47.341Z,72.91
2023-05-19T01:38:52.640Z,73.17
2023-05-19T01:41:58.774Z,73.28
2023-05-19T01:45:02.239Z,73.20
2023-05-19T01:48:09.923Z,73.27
2023-05-19T01:51:13.684Z,73.38
2023-05-19T01:54:16.501Z,73.87
2023-05-19T01:57:30.442Z,73.47
2023-05-19T02:00:46.971Z,73.59
2023-05-19T02:04:16.531Z,73.44
2023-05-19T02:07:31.246Z,73.41
2023-05-19T02:10:41.448Z,73.51
2023-05-19T02:13:45.613Z,73.69
2023-05-19T02:16:49.775Z,73.68
2023-05-19T02:19:53.930Z,73.53
2023-05-19T02:22:56.657Z,73.76
2023-05-19T02:25:59.334Z,73.93
2023-05-19T02:29:02.097Z,73.92
2023-05-19T02:32:05.401Z,74.33
2023-05-19T02:35:10.380Z,74.61
2023-05-19T02:38:13.432Z,74.85
2023-05-19T02:41:17.304Z,75.18
2023-05-19T02:44:20.060Z,75.27
2023-05-19T02:47:23.079Z,75.26
2023-05-19T02:50:27.282Z,75.17
2023-05-19T02:53:30.057Z,75.29
2023-05-19T02:56:32.798Z,75.37
2023-05-19T02:59:35.661Z,75.67
2023-05-19T03:02:38.857Z,75.49
2023-05-19T03:05:44.206Z,75.62
2023-05-19T03:08:46.932Z,75.55
2023-05-19T03:11:49.747Z,75.83
2023-05-19T03:14:52.527Z,75.71
2023-05-19T03:17:55.445Z,75.85
2023-05-19T03:20:59.587Z,75.74
2023-05-19T03:24:03.215Z,75.96
2023-05-19T03:27:06.942Z,76.01
2023-05-19T03:30:12.996Z,75.91
2023-05-19T03:33:15.879Z,75.89
2023-05-19T03:36:20.177Z,75.90
2023-05-19T03:39:23.161Z,76.28
2023-05-19T03:42:26.096Z,76.22
2023-05-19T03:45:29.153Z,76.20
2023-05-19T03:48:31.960Z,76.35
2023-05-19T03:51:36.800Z,76.31
2023-05-19T03:54:40.045Z,76.46
2023-05-19T03:57:43.425Z,76.27
2023-05-19T04:00:46.339Z,76.32
2023-05-19T04:03:49.107Z,76.30
2023-05-19T04:06:53.282Z,76.39
2023-05-19T04:09:56.082Z,76.27
2023-05-19T04:12:58.833Z,75.76
2023-05-19T04:16:02.110Z,75.72
2023-05-19T04:19:05.030Z,75.89
2023-05-19T04:22:09.190Z,75.43
2023-05-19T04:25:12.055Z,75.34
2023-05-19T04:28:14.808Z,74.93
2023-05-19T04:31:17.702Z,74.70
2023-05-19T04:34:22.086Z,74.56
2023-05-19T04:37:26.689Z,74.42
2023-05-19T04:40:31.373Z,74.23
2023-05-19T04:43:34.463Z,74.23
2023-05-19T04:46:37.704Z,73.73
2023-05-19T04:49:40.532Z,73.75
2023-05-19T04:52:45.615Z,73.36
2023-05-19T04:55:48.504Z,72.92
2023-05-19T04:58:51.560Z,72.89
2023-05-19T05:01:54.480Z,72.42
2023-05-19T05:04:58.055Z,72.02
2023-05-19T05:08:03.201Z,71.74
2023-05-19T05:11:06.624Z,71.08
2023-05-19T05:14:10.036Z,70.39
2023-05-19T05:17:13.779Z,70.21
2023-05-19T05:20:18.052Z,69.54
2023-05-19T05:23:22.706Z,68.71
2023-05-19T05:26:31.380Z,68.34
2023-05-19T05:29:34.392Z,67.95
2023-05-19T05:32:37.344Z,67.37
2023-05-19T05:35:40.244Z,67.11
2023-05-19T05:38:44.419Z,66.29
2023-05-19T05:41:47.181Z,66.11
2023-05-19T05:44:50.423Z,65.51
2023-05-19T05:47:53.840Z,65.23
2023-05-19T05:50:58.139Z,64.25
2023-05-19T05:54:03.701Z,63.81
2023-05-19T05:57:07.381Z,62.96
2023-05-19T06:00:15.521Z,61.88
2023-05-19T06:03:18.772Z,61.45
2023-05-19T06:06:21.750Z,60.87
2023-05-19T06:09:25.957Z,60.47
2023-05-19T06:12:28.706Z,60.04
2023-05-19T06:15:31.501Z,59.69
2023-05-19T06:18:34.779Z,59.47
2023-05-19T06:21:37.556Z,57.88
2023-05-19T06:24:41.774Z,55.79
2023-05-19T06:27:44.527Z,53.69
2023-05-19T06:30:47.274Z,52.31
2023-05-19T06:33:50.030Z,51.31
2023-05-19T06:36:52.881Z,50.76
2023-05-19T06:39:57.163Z,50.51
2023-05-19T06:42:59.911Z,50.11
2023-05-19T06:46:02.698Z,49.45
2023-05-19T06:49:05.436Z,48.49
2023-05-19T06:52:08.466Z,47.58
2023-05-19T06:55:12.953Z,46.34
2023-05-19T06:58:16.008Z,44.81
2023-05-19T07:01:19.200Z,44.03
2023-05-19T07:04:21.989Z,43.74
2023-05-19T07:07:25.196Z,43.41
2023-05-19T07:10:29.497Z,43.40
2023-05-19T07:13:32.968Z,43.47
2023-05-19T07:16:35.765Z,43.14
2023-05-19T07:19:38.544Z,43.34
2023-05-19T07:22:41.292Z,43.21
2023-05-19T07:25:45.425Z,43.59
2023-05-19T07:28:48.138Z,44.20
2023-05-19T07:31:54.203Z,44.01
2023-05-19T07:34:57.016Z,43.98
2023-05-19T07:37:59.760Z,43.90
2023-05-19T07:41:04.209Z,43.67
2023-05-19T07:44:07.765Z,43.32
2023-05-19T07:47:10.745Z,42.92
2023-05-19T07:50:13.665Z,42.07
2023-05-19T07:53:16.756Z,42.71
2023-05-19T07:56:21.594Z,42.54
2023-05-19T07:59:24.566Z,42.42
2023-05-19T08:02:27.435Z,43.52
2023-05-19T08:05:30.932Z,43.74
2023-05-19T08:08:34.333Z,44.17
2023-05-19T08:11:38.679Z,44.50
2023-05-19T08:14:41.455Z,43.92
2023-05-19T08:17:44.633Z,43.84
2023-05-19T08:20:47.512Z,43.82
2023-05-19T08:23:50.322Z,44.28
2023-05-19T08:26:54.401Z,44.18
2023-05-19T08:29:57.407Z,43.64
2023-05-19T08:33:00.204Z,42.18
2023-05-19T08:36:03.831Z,42.03
2023-05-19T08:39:06.963Z,41.83
2023-05-19T08:42:11.595Z,41.01
2023-05-19T08:45:14.703Z,40.71
2023-05-19T08:48:19.628Z,40.81
2023-05-19T08:51:33.252Z,41.33
2023-05-19T08:54:50.919Z,41.51
2023-05-19T08:57:55.598Z,40.84
2023-05-19T09:01:00.999Z,41.22
2023-05-19T09:04:05.697Z,39.80
2023-05-19T09:07:09.444Z,40.02
2023-05-19T09:10:14.833Z,40.57
2023-05-19T09:13:19.569Z,40.48
2023-05-19T09:16:22.805Z,40.61
2023-05-19T09:19:29.878Z,39.86
2023-05-19T09:22:35.796Z,40.25
2023-05-19T09:25:47.914Z,39.67
2023-05-19T09:28:52.591Z,39.91
2023-05-19T09:32:00.766Z,39.80
2023-05-19T09:35:04.809Z,39.57
2023-05-19T09:38:07.614Z,39.39
2023-05-19T09:41:10.637Z,38.84
2023-05-19T09:44:23.311Z,36.86
2023-05-19T09:47:27.006Z,38.61
2023-05-19T09:50:30.824Z,37.70
2023-05-19T09:53:35.129Z,37.49
2023-05-19T09:56:39.615Z,37.80
2023-05-19T09:59:44.700Z,37.46
2023-05-19T10:02:50.636Z,37.51
2023-05-19T10:05:54.135Z,37.20
2023-05-19T10:09:00.851Z,36.23
2023-05-19T10:12:04.458Z,35.78
2023-05-19T10:15:11.331Z,36.65
2023-05-19T10:18:18.790Z,36.67
2023-05-19T10:21:21.517Z,36.43
2023-05-19T10:24:24.326Z,37.12
2023-05-19T10:27:29.224Z,36.98
2023-05-19T10:30:36.991Z,37.28
2023-05-19T10:33:58.649Z,36.93
2023-05-19T10:37:14.667Z,37.52
2023-05-19T10:40:23.120Z,37.77
2023-05-19T10:43:38.248Z,37.09
2023-05-19T10:46:43.167Z,37.80
2023-05-19T10:49:46.192Z,37.23
2023-05-19T10:52:55.628Z,37.71
2023-05-19T10:55:59.285Z,36.95
2023-05-19T10:59:02.394Z,36.70
2023-05-19T11:02:08.560Z,36.72
2023-05-19T11:05:14.546Z,36.65
2023-05-19T11:08:18.051Z,37.04
2023-05-19T11:11:23.421Z,36.66
2023-05-19T11:14:28.124Z,37.05
2023-05-19T11:17:33.181Z,36.88
2023-05-19T11:20:40.345Z,35.41
2023-05-19T11:23:44.076Z,36.34
2023-05-19T11:26:47.599Z,36.65
2023-05-19T11:29:51.255Z,35.92
2023-05-19T11:32:58.916Z,35.75
2023-05-19T11:36:02.153Z,35.70
2023-05-19T11:39:06.035Z,35.74
2023-05-19T11:42:10.902Z,35.09
2023-05-19T11:45:13.713Z,35.05
2023-05-19T11:48:18.464Z,35.73
2023-05-19T11:51:22.705Z,35.89
2023-05-19T11:54:31.585Z,36.53
2023-05-19T11:57:34.491Z,36.28
2023-05-19T12:00:39.572Z,35.76
2023-05-19T12:03:44.213Z,35.92
2023-05-19T12:06:49.975Z,35.52
2023-05-19T12:09:53.668Z,35.56
2023-05-19T12:12:57.380Z,35.45
2023-05-19T12:16:02.456Z,35.18
2023-05-19T12:19:07.737Z,35.15
2023-05-19T12:22:11.478Z,35.62
2023-05-19T12:25:14.731Z,35.54
2023-05-19T12:28:17.758Z,35.31
2023-05-19T12:31:23.508Z,35.84
2023-05-19T12:34:27.759Z,35.53
2023-05-19T12:37:30.887Z,35.57
2023-05-19T12:40:34.965Z,35.94
2023-05-19T12:43:38.227Z,35.75
2023-05-19T12:46:41.567Z,35.76
2023-05-19T12:50:02.077Z,34.57
2023-05-19T12:53:10.118Z,34.88
2023-05-19T12:56:14.733Z,35.08
2023-05-19T12:59:37.079Z,34.79
2023-05-19T13:02:57.045Z,34.64
2023-05-19T13:06:01.270Z,34.48
2023-05-19T13:09:04.907Z,34.49
2023-05-19T13:12:07.994Z,34.31
2023-05-19T13:15:11.662Z,34.48
2023-05-19T13:18:14.781Z,34.57
2023-05-19T13:21:18.988Z,34.43
2023-05-19T13:24:46.133Z,34.41
2023-05-19T13:28:33.269Z,34.78
2023-05-19T13:31:47.704Z,35.37
2023-05-19T13:35:50.480Z,35.79
2023-05-19T13:38:56.419Z,36.01
2023-05-19T13:42:00.198Z,36.51
2023-05-19T13:45:05.837Z,36.60
2023-05-19T13:48:12.382Z,35.91
2023-05-19T13:51:15.903Z,35.91
2023-05-19T13:58:22.670Z,35.71
2023-05-19T14:02:09.800Z,35.91
2023-05-19T14:05:47.280Z,35.38
2023-05-19T14:09:00.865Z,35.77
2023-05-19T14:12:35.478Z,35.56
2023-05-19T14:19:35.764Z,34.73
2023-05-19T14:22:59.493Z,35.11
2023-05-19T14:26:24.658Z,35.26
2023-05-19T14:29:44.026Z,35.41
2023-05-19T14:33:08.878Z,34.71
2023-05-19T14:39:59.092Z,34.21
2023-05-19T14:43:14.440Z,34.52
2023-05-19T14:46:24.516Z,33.83
2023-05-19T14:49:27.266Z,34.01
2023-05-19T14:56:42.544Z,33.63
2023-05-19T15:00:08.498Z,33.82
2023-05-19T15:03:23.928Z,33.91
2023-05-19T15:07:05.834Z,34.00
2023-05-19T15:10:47.749Z,34.15
2023-05-19T15:18:22.014Z,34.55
2023-05-19T15:21:38.309Z,35.27
2023-05-19T15:24:42.225Z,35.01
2023-05-19T15:28:11.385Z,35.82
2023-05-19T15:31:40.671Z,34.98
2023-05-19T15:35:28.118Z,34.63
2023-05-19T15:38:57.954Z,34.97
2023-05-19T15:42:32.863Z,35.43
2023-05-19T15:45:56.779Z,34.55
2023-05-19T15:53:31.503Z,34.94
2023-05-19T15:56:57.232Z,35.44
2023-05-19T16:00:14.553Z,35.80
2023-05-19T16:04:08.805Z,35.06
2023-05-19T16:11:13.217Z,35.33
2023-05-19T16:14:45.792Z,35.61
2023-05-19T16:22:07.507Z,35.54
2023-05-19T16:25:25.052Z,35.75
2023-05-19T16:28:42.039Z,35.88
2023-05-19T16:32:26.223Z,36.48
2023-05-19T16:36:18.348Z,36.68
2023-05-19T16:40:20.155Z,37.11
2023-05-19T16:44:06.174Z,36.78
2023-05-19T16:47:24.269Z,37.08
2023-05-19T16:50:39.914Z,36.84
2023-05-19T16:54:39.514Z,37.51
2023-05-19T16:58:04.452Z,37.92
2023-05-19T17:01:27.791Z,37.68
2023-05-19T17:05:19.493Z,37.90
2023-05-19T17:09:08.270Z,38.90
2023-05-19T17:15:43.217Z,39.41
2023-05-19T17:19:02.929Z,39.28
2023-05-19T17:22:13.634Z,39.52
2023-05-19T17:25:39.189Z,39.80
2023-05-19T17:28:52.184Z,39.54
2023-05-19T17:32:39.885Z,40.08
2023-05-19T17:35:48.805Z,40.04
2023-05-19T17:39:13.910Z,39.96
2023-05-19T17:50:25.440Z,39.90
2023-05-19T17:53:29.523Z,40.16
2023-05-19T17:56:42.429Z,40.06
2023-05-19T17:59:54.049Z,40.01
2023-05-19T18:02:59.262Z,40.26
2023-05-19T18:06:24.305Z,40.50
2023-05-19T18:10:04.941Z,40.23
2023-05-19T18:13:58.515Z,39.66
2023-05-19T18:17:19.624Z,41.39
2023-05-19T18:20:39.731Z,42.57
2023-05-19T18:23:49.814Z,43.06
2023-05-19T18:27:09.840Z,43.32
2023-05-19T18:30:30.934Z,43.51
2023-05-19T18:34:07.641Z,44.15
2023-05-19T18:37:38.285Z,44.73
2023-05-19T18:40:54.194Z,45.23
2023-05-19T18:44:34.682Z,45.86
2023-05-19T18:47:50.138Z,46.00
2023-05-19T18:51:42.563Z,46.15
2023-05-19T18:54:56.406Z,46.87
2023-05-19T19:01:51.854Z,47.94
2023-05-19T19:05:00.572Z,48.49
2023-05-19T19:11:39.049Z,48.97
2023-05-19T19:18:58.330Z,49.18
2023-05-19T19:22:04.965Z,49.67
2023-05-19T19:25:23.723Z,49.64
2023-05-19T19:28:48.789Z,49.80
2023-05-19T19:32:16.980Z,51.41
2023-05-19T19:35:38.699Z,53.39
2023-05-19T19:38:58.977Z,54.74
2023-05-19T19:49:31.279Z,56.36
2023-05-19T19:52:46.463Z,56.37
2023-05-19T19:56:24.303Z,56.31
2023-05-19T20:03:24.740Z,56.08
2023-05-19T20:06:48.593Z,56.84
2023-05-19T20:09:56.247Z,56.70
2023-05-19T20:13:30.632Z,56.63
2023-05-19T20:17:10.320Z,56.70
2023-05-19T20:20:29.452Z,56.79
2023-05-19T20:23:48.892Z,58.10
2023-05-19T20:27:43.055Z,59.17
2023-05-19T20:30:48.690Z,59.73
2023-05-19T20:33:52.822Z,59.54
2023-05-19T20:36:55.709Z,59.94
2023-05-19T20:39:58.575Z,60.46
2023-05-19T20:43:01.313Z,61.42
2023-05-19T20:46:07.524Z,63.37
2023-05-19T20:49:11.633Z,63.28
2023-05-19T20:52:14.326Z,62.59
2023-05-19T20:55:18.488Z,63.27
2023-05-19T20:58:21.275Z,63.31
2023-05-19T21:01:25.665Z,63.16
2023-05-19T21:04:29.980Z,63.37
2023-05-19T21:07:32.820Z,63.88
2023-05-19T21:10:35.753Z,63.49
2023-05-19T21:13:39.245Z,63.49
2023-05-19T21:16:42.546Z,63.71
2023-05-19T21:19:48.039Z,63.09
2023-05-19T21:22:51.385Z,63.60
2023-05-19T21:25:54.284Z,63.12
2023-05-19T21:28:57.131Z,62.92
2023-05-19T21:32:00.270Z,62.57
2023-05-19T21:35:06.099Z,62.18
2023-05-19T21:38:22.545Z,61.92
2023-05-19T21:41:26.433Z,61.85
2023-05-19T21:44:29.354Z,62.41
2023-05-19T21:47:32.137Z,62.51
2023-05-19T21:50:38.514Z,63.06
2023-05-19T21:53:41.225Z,63.68
2023-05-19T21:56:43.989Z,63.89
2023-05-19T21:59:47.238Z,64.59
2023-05-19T22:02:50.099Z,64.55
2023-05-19T22:05:55.318Z,64.00
2023-05-19T22:09:00.569Z,64.14
2023-05-19T22:12:03.372Z,64.21
2023-05-19T22:15:07.307Z,64.49
2023-05-19T22:18:10.143Z,64.34
2023-05-19T22:21:14.265Z,64.29
2023-05-19T22:24:18.538Z,64.37
2023-05-19T22:27:21.610Z,63.52
2023-05-19T22:30:24.803Z,63.33
2023-05-19T22:33:27.544Z,63.19
2023-05-19T22:36:31.800Z,63.66
2023-05-19T22:39:34.549Z,63.85
2023-05-19T22:42:37.307Z,62.59
2023-05-19T22:45:40.405Z,61.23
2023-05-19T22:48:43.155Z,61.36
2023-05-19T22:51:47.264Z,59.45
2023-05-19T22:54:50.189Z,58.65
2023-05-19T22:57:53.032Z,58.94
2023-05-19T23:00:56.181Z,58.54
2023-05-19T23:03:59.209Z,58.97
2023-05-19T23:07:03.488Z,58.09
2023-05-19T23:10:07.577Z,57.86
2023-05-19T23:13:11.913Z,57.87
2023-05-19T23:16:14.787Z,58.02
2023-05-19T23:19:17.932Z,58.09
2023-05-19T23:22:22.070Z,57.46
2023-05-19T23:25:24.889Z,58.09
2023-05-19T23:28:27.839Z,58.55
2023-05-19T23:31:30.676Z,58.43
2023-05-19T23:34:33.496Z,58.72
2023-05-19T23:37:37.639Z,59.09
2023-05-19T23:40:40.461Z,58.65
2023-05-19T23:43:43.370Z,58.95
2023-05-19T23:46:46.188Z,59.94
2023-05-19T23:49:49.459Z,60.20
2023-05-19T23:52:53.571Z,60.30
2023-05-19T23:55:57.287Z,60.81
2023-05-19T23:59:02.120Z,61.37
